createdAt,value
2023-01-11T00:01:32.771Z,100905.00
2023-01-11T00:04:01.209Z,100896.28
2023-01-11T00:06:31.060Z,100891.09
2023-01-11T00:09:00.303Z,100859.53
2023-01-11T00:11:28.691Z,100856.84
2023-01-11T00:13:57.528Z,100663.63
2023-01-11T00:16:26.097Z,100695.28
2023-01-11T00:18:54.828Z,100880.59
2023-01-11T00:21:23.411Z,100869.31
2023-01-11T00:23:53.313Z,100574.31
2023-01-11T00:26:21.764Z,100854.50
2023-01-11T00:28:50.697Z,100789.44
2023-01-11T00:31:19.549Z,100809.59
2023-01-11T00:33:47.991Z,100850.88
2023-01-11T00:36:16.461Z,100851.72
2023-01-11T00:38:46.755Z,100800.81
2023-01-11T00:41:34.983Z,100842.19
2023-01-11T00:44:21.954Z,100835.22
2023-01-11T00:47:08.164Z,100814.19
2023-01-11T00:49:37.159Z,100816.94
2023-01-11T00:52:08.907Z,100841.66
2023-01-11T00:54:38.143Z,100822.63
2023-01-11T00:57:08.618Z,100818.47
2023-01-11T00:59:39.320Z,100764.09
2023-01-11T01:02:09.268Z,100818.66
2023-01-11T01:04:37.951Z,100766.13
2023-01-11T01:07:07.398Z,100806.50
2023-01-11T01:09:37.837Z,100807.41
2023-01-11T01:12:09.264Z,100644.22
2023-01-11T01:14:38.955Z,100813.63
2023-01-11T01:17:10.045Z,100802.41
2023-01-11T01:19:40.305Z,100711.94
2023-01-11T01:22:09.197Z,100814.69
2023-01-11T01:24:39.987Z,100804.34
2023-01-11T01:27:17.927Z,100807.00
2023-01-11T01:29:48.131Z,100801.00
2023-01-11T01:32:21.111Z,100799.31
2023-01-11T01:34:51.203Z,100766.94
2023-01-11T01:37:21.475Z,100602.09
2023-01-11T01:39:49.880Z,100660.03
2023-01-11T01:42:24.160Z,100689.00
2023-01-11T01:45:03.177Z,100784.66
2023-01-11T01:47:41.614Z,100785.53
2023-01-11T01:50:23.453Z,100784.69
2023-01-11T01:52:59.912Z,100657.59
2023-01-11T01:55:32.671Z,100762.91
2023-01-11T01:58:10.494Z,100711.09
2023-01-11T02:00:41.951Z,100770.69
2023-01-11T02:03:15.128Z,100737.34
2023-01-11T02:05:43.726Z,100509.41
2023-01-11T02:08:23.798Z,100697.09
2023-01-11T02:10:54.376Z,100753.25
2023-01-11T02:13:24.355Z,100739.31
2023-01-11T02:16:07.917Z,100741.97
2023-01-11T02:18:40.098Z,100423.00
2023-01-11T02:21:24.693Z,100669.41
2023-01-11T02:24:24.644Z,100679.09
2023-01-11T02:27:26.259Z,100720.41
2023-01-11T02:30:15.446Z,100715.19
2023-01-11T02:33:00.141Z,100669.63
2023-01-11T02:35:43.322Z,100709.16
2023-01-11T02:38:26.719Z,100710.94
2023-01-11T02:41:05.019Z,100475.34
2023-01-11T02:44:03.521Z,100393.97
2023-01-11T02:46:44.189Z,100520.94
2023-01-11T02:49:29.447Z,100657.69
2023-01-11T02:52:09.723Z,100677.03
2023-01-11T02:54:43.510Z,100617.50
2023-01-11T02:57:17.616Z,100477.41
2023-01-11T02:59:50.490Z,100667.44
2023-01-11T03:02:20.399Z,100663.97
2023-01-11T03:04:48.758Z,100662.19
2023-01-11T03:07:42.442Z,100649.94
2023-01-11T03:10:30.472Z,100592.94
2023-01-11T03:13:14.032Z,100645.44
2023-01-11T03:16:21.670Z,100648.88
2023-01-11T03:19:03.859Z,100628.69
2023-01-11T03:21:51.194Z,100639.19
2023-01-11T03:24:33.170Z,100635.69
2023-01-11T03:27:21.932Z,100626.91
2023-01-11T03:30:03.286Z,100485.91
2023-01-11T03:32:42.720Z,100625.13
2023-01-11T03:35:26.468Z,100625.09
2023-01-11T03:38:05.700Z,100613.78
2023-01-11T03:40:41.242Z,100615.50
2023-01-11T03:43:14.679Z,100620.75
2023-01-11T03:45:51.501Z,100555.06
2023-01-11T03:48:26.367Z,100591.88
2023-01-11T03:51:00.108Z,100594.53
2023-01-11T03:53:34.487Z,100605.94
2023-01-11T03:56:07.013Z,100601.63
2023-01-11T03:58:36.870Z,100569.19
2023-01-11T04:01:05.791Z,100596.41
2023-01-11T04:03:34.575Z,100595.59
2023-01-11T04:06:04.976Z,100590.41
2023-01-11T04:08:33.435Z,100497.75
2023-01-11T04:11:06.748Z,100573.94
2023-01-11T04:13:36.926Z,100567.00
2023-01-11T04:16:05.778Z,100465.53
2023-01-11T04:18:36.243Z,100502.28
2023-01-11T04:21:08.258Z,100488.34
2023-01-11T04:23:39.461Z,100548.72
2023-01-11T04:26:07.868Z,100546.09
2023-01-11T04:28:36.560Z,100491.00
2023-01-11T04:31:05.428Z,100442.06
2023-01-11T04:33:34.012Z,100491.00
2023-01-11T04:36:08.075Z,100447.31
2023-01-11T04:38:39.056Z,100396.63
2023-01-11T04:41:31.144Z,100543.53
2023-01-11T04:44:01.881Z,100413.25
2023-01-11T04:46:32.398Z,100530.44
2023-01-11T04:49:05.277Z,100515.59
2023-01-11T04:51:36.540Z,100464.00
2023-01-11T04:54:06.961Z,100520.84
2023-01-11T04:56:36.482Z,100509.47
2023-01-11T04:59:04.966Z,100521.72
2023-01-11T05:01:33.479Z,100498.97
2023-01-11T05:04:01.924Z,100518.22
2023-01-11T05:06:30.414Z,100518.22
2023-01-11T05:09:00.259Z,100517.34
2023-01-11T05:11:28.708Z,100512.13
2023-01-11T05:13:59.945Z,100506.88
2023-01-11T05:16:28.758Z,100508.59
2023-01-11T05:19:01.657Z,100506.00
2023-01-11T05:21:34.956Z,100478.88
2023-01-11T05:24:08.442Z,100500.72
2023-01-11T05:26:40.151Z,100502.50
2023-01-11T05:29:16.590Z,100501.63
2023-01-11T05:31:45.579Z,100447.41
2023-01-11T05:34:15.549Z,100492.00
2023-01-11T05:36:44.618Z,100410.72
2023-01-11T05:39:16.162Z,100485.03
2023-01-11T05:41:44.889Z,100477.16
2023-01-11T05:44:31.828Z,100472.78
2023-01-11T05:47:00.581Z,100400.22
2023-01-11T05:49:29.054Z,100477.16
2023-01-11T05:51:57.568Z,100477.13
2023-01-11T05:54:28.489Z,100470.13
2023-01-11T05:56:58.975Z,100442.19
2023-01-11T05:59:27.458Z,100464.88
2023-01-11T06:01:55.927Z,100408.09
2023-01-11T06:04:24.367Z,100422.94
2023-01-11T06:06:53.074Z,100448.25
2023-01-11T06:09:21.671Z,100449.13
2023-01-11T06:11:51.410Z,100449.09
2023-01-11T06:14:22.536Z,100442.97
2023-01-11T06:16:51.290Z,100441.22
2023-01-11T06:19:20.403Z,100436.81
2023-01-11T06:21:48.860Z,100437.69
2023-01-11T06:24:17.501Z,100435.06
2023-01-11T06:26:46.639Z,100442.06
2023-01-11T06:29:16.377Z,100424.59
2023-01-11T06:31:45.750Z,100424.56
2023-01-11T06:34:14.128Z,100451.66
2023-01-11T06:36:42.579Z,100447.28
2023-01-11T06:39:11.594Z,100413.22
2023-01-11T06:41:40.323Z,100143.63
2023-01-11T06:44:08.741Z,100436.78
2023-01-11T06:46:44.604Z,100436.78
2023-01-11T06:49:13.582Z,100448.16
2023-01-11T06:51:42.337Z,100440.25
2023-01-11T06:54:10.754Z,100382.63
2023-01-11T06:56:39.537Z,100444.63
2023-01-11T06:59:08.415Z,100446.38
2023-01-11T07:01:40.880Z,100438.50
2023-01-11T07:04:09.399Z,100448.97
2023-01-11T07:06:37.987Z,100407.06
2023-01-11T07:09:06.549Z,100455.16
2023-01-11T07:11:38.945Z,100458.59
2023-01-11T07:14:07.688Z,100422.78
2023-01-11T07:16:37.362Z,100459.47
2023-01-11T07:19:06.996Z,100455.09
2023-01-11T07:21:35.332Z,100382.56
2023-01-11T07:24:03.981Z,100467.25
2023-01-11T07:26:33.126Z,100469.88
2023-01-11T07:29:01.550Z,100473.38
2023-01-11T07:31:31.266Z,100428.84
2023-01-11T07:34:01.164Z,100360.75
2023-01-11T07:36:30.072Z,100324.94
2023-01-11T07:38:58.653Z,100472.44
2023-01-11T07:41:44.503Z,100461.94
2023-01-11T07:44:13.466Z,100468.03
2023-01-11T07:46:41.933Z,100461.84
2023-01-11T07:49:12.783Z,100433.06
2023-01-11T07:51:41.137Z,100457.47
2023-01-11T07:54:09.615Z,100467.91
2023-01-11T07:56:38.034Z,100464.38
2023-01-11T07:59:06.384Z,100413.72
2023-01-11T08:01:34.770Z,100455.56
2023-01-11T08:04:03.836Z,100454.72
2023-01-11T08:06:33.603Z,100451.16
2023-01-11T08:09:01.995Z,100385.69
2023-01-11T08:11:47.988Z,100451.97
2023-01-11T08:14:45.083Z,100450.19
2023-01-11T08:17:16.703Z,100452.78
2023-01-11T08:19:45.262Z,100456.22
2023-01-11T08:22:18.508Z,100443.88
2023-01-11T08:24:46.938Z,100450.84
2023-01-11T08:27:15.389Z,100446.41
2023-01-11T08:29:44.378Z,100438.44
2023-01-11T08:32:13.387Z,100436.69
2023-01-11T08:34:42.183Z,100432.28
2023-01-11T08:37:10.545Z,100433.97
2023-01-11T08:39:40.466Z,100434.84
2023-01-11T08:42:08.907Z,100429.50
2023-01-11T08:44:37.267Z,100429.47
2023-01-11T08:47:07.857Z,100423.28
2023-01-11T08:49:37.515Z,100324.69
2023-01-11T08:52:06.155Z,100407.53
2023-01-11T08:54:34.463Z,100421.47
2023-01-11T08:57:04.257Z,100412.63
2023-01-11T08:59:32.610Z,100410.84
2023-01-11T09:02:02.738Z,100402.09
2023-01-11T09:04:31.213Z,100411.75
2023-01-11T09:06:59.631Z,100355.88
2023-01-11T09:09:28.033Z,100402.88
2023-01-11T09:11:57.412Z,100410.75
2023-01-11T09:14:29.589Z,100358.41
2023-01-11T09:16:58.986Z,100404.50
2023-01-11T09:19:27.341Z,100414.16
2023-01-11T09:22:00.148Z,100408.00
2023-01-11T09:24:28.970Z,100409.72
2023-01-11T09:27:00.254Z,100409.69
2023-01-11T09:29:30.085Z,100407.06
2023-01-11T09:31:58.447Z,100409.69
2023-01-11T09:34:27.528Z,100407.91
2023-01-11T09:36:59.939Z,100407.88
2023-01-11T09:39:28.958Z,100418.25
2023-01-11T09:42:31.744Z,100413.81
2023-01-11T09:45:13.714Z,100404.94
2023-01-11T09:47:49.319Z,100398.75
2023-01-11T09:50:24.744Z,100352.44
2023-01-11T09:52:59.111Z,100374.09
2023-01-11T09:55:37.067Z,100382.72
2023-01-11T09:58:33.494Z,100374.69
2023-01-11T10:01:12.363Z,100375.44
2023-01-11T10:04:36.755Z,100369.16
2023-01-11T10:07:42.963Z,100365.44
2023-01-11T10:18:32.892Z,100323.34
2023-01-11T10:19:41.618Z,100356.28
2023-01-11T10:22:18.881Z,100360.66
2023-01-11T10:24:56.326Z,100344.78
2023-01-11T10:27:35.711Z,100319.44
2023-01-11T10:30:33.460Z,100307.19
2023-01-11T10:33:20.709Z,100343.50
2023-01-11T10:36:13.597Z,100328.41
2023-01-11T10:39:03.167Z,100329.25
2023-01-11T10:41:46.715Z,100335.41
2023-01-11T10:44:28.837Z,100338.94
2023-01-11T10:47:01.582Z,100296.47
2023-01-11T10:49:44.284Z,100326.00
2023-01-11T10:52:39.079Z,100332.06
2023-01-11T10:55:17.549Z,100326.63
2023-01-11T10:58:02.852Z,100316.75
2023-01-11T11:00:45.161Z,100304.22
2023-01-11T11:03:52.830Z,100317.28
2023-01-11T11:06:40.931Z,100316.50
2023-01-11T11:09:24.267Z,100313.91
2023-01-11T11:11:59.937Z,100312.13
2023-01-11T11:14:39.531Z,100308.59
2023-01-11T11:17:24.351Z,100309.53
2023-01-11T11:19:54.292Z,100302.38
2023-01-11T11:22:24.246Z,100305.16
2023-01-11T11:25:03.517Z,100297.25
2023-01-11T11:27:41.557Z,100294.63
2023-01-11T11:30:15.076Z,100283.16
2023-01-11T11:32:55.779Z,100283.09
2023-01-11T11:35:38.320Z,100233.25
2023-01-11T11:38:19.267Z,100278.19
2023-01-11T11:40:59.493Z,100273.59
2023-01-11T11:43:29.190Z,100247.59
2023-01-11T11:46:00.010Z,100271.16
2023-01-11T11:48:32.042Z,100218.16
2023-01-11T11:51:04.174Z,100268.50
2023-01-11T11:53:43.059Z,100267.66
2023-01-11T11:56:24.252Z,100259.88
2023-01-11T11:58:53.728Z,100265.31
2023-01-11T12:01:30.858Z,100264.59
2023-01-11T12:04:05.158Z,100225.63
2023-01-11T12:06:33.595Z,100263.19
2023-01-11T12:09:11.129Z,100226.47
2023-01-11T12:11:43.133Z,100255.25
2023-01-11T12:14:22.267Z,100260.63
2023-01-11T12:16:50.928Z,100255.50
2023-01-11T12:19:29.362Z,100254.63
2023-01-11T12:22:18.737Z,100254.75
2023-01-11T12:25:04.722Z,100239.00
2023-01-11T12:27:47.590Z,100201.66
2023-01-11T12:30:26.496Z,100203.38
2023-01-11T12:33:30.912Z,100237.16
2023-01-11T12:36:07.063Z,100214.38
2023-01-11T12:38:48.580Z,100223.81
2023-01-11T12:41:57.666Z,100216.72
2023-01-11T12:45:00.130Z,100215.69
2023-01-11T12:48:15.578Z,100215.47
2023-01-11T12:51:07.088Z,100215.41
2023-01-11T12:54:06.099Z,100139.06
2023-01-11T12:56:58.740Z,100209.34
2023-01-11T13:00:06.090Z,100216.22
2023-01-11T13:03:09.341Z,100211.75
2023-01-11T13:05:53.892Z,100201.94
2023-01-11T13:08:41.617Z,100200.03
2023-01-11T13:11:36.077Z,100200.94
2023-01-11T13:14:27.053Z,100204.50
2023-01-11T13:17:06.696Z,100200.16
2023-01-11T13:19:46.070Z,100197.69
2023-01-11T13:22:20.586Z,100195.94
2023-01-11T13:24:52.356Z,100157.56
2023-01-11T13:27:25.387Z,100190.66
2023-01-11T13:29:59.532Z,100186.31
2023-01-11T13:32:37.488Z,100184.53
2023-01-11T13:35:17.586Z,100164.47
2023-01-11T13:37:55.970Z,100183.50
2023-01-11T13:40:30.521Z,100185.34
2023-01-11T13:43:08.873Z,100139.34
2023-01-11T13:45:47.976Z,100179.38
2023-01-11T13:48:25.995Z,100165.56
2023-01-11T13:51:04.673Z,100165.75
2023-01-11T13:53:44.553Z,100175.22
2023-01-11T13:56:23.254Z,100187.41
2023-01-11T13:59:00.725Z,100179.44
2023-01-11T14:01:44.125Z,100175.19
2023-01-11T14:04:21.227Z,100171.84
2023-01-11T14:07:09.987Z,100091.91
2023-01-11T14:10:16.835Z,100174.53
2023-01-11T14:13:37.033Z,100174.66
2023-01-11T14:16:19.857Z,100169.31
2023-01-11T14:19:04.117Z,100166.69
2023-01-11T14:21:46.255Z,100174.59
2023-01-11T14:24:19.198Z,100172.06
2023-01-11T14:27:17.170Z,100174.75
2023-01-11T14:30:24.484Z,100179.19
2023-01-11T14:33:54.066Z,100175.81
2023-01-11T14:37:14.549Z,100139.53
2023-01-11T14:40:48.564Z,100168.28
2023-01-11T14:43:45.614Z,100145.88
2023-01-11T14:46:54.386Z,100172.94
2023-01-11T14:49:45.967Z,100178.25
2023-01-11T14:52:34.543Z,100172.16
2023-01-11T14:55:17.906Z,100174.91
2023-01-11T14:58:03.571Z,100178.47
2023-01-11T15:01:11.703Z,100158.59
2023-01-11T15:03:58.120Z,100181.22
2023-01-11T15:06:32.594Z,100176.84
2023-01-11T15:09:02.404Z,100171.72
2023-01-11T15:11:42.090Z,100182.25
2023-01-11T15:14:30.704Z,100170.84
2023-01-11T15:17:20.551Z,100143.09
2023-01-11T15:19:53.364Z,100180.63
2023-01-11T15:22:29.696Z,100165.84
2023-01-11T15:25:06.849Z,100169.34
2023-01-11T15:27:38.367Z,100152.00
2023-01-11T15:30:29.487Z,100180.78
2023-01-11T15:33:45.492Z,100183.50
2023-01-11T15:36:15.494Z,100180.03
2023-01-11T15:38:53.541Z,100179.19
2023-01-11T15:42:07.624Z,100179.28
2023-01-11T15:45:07.834Z,100181.97
2023-01-11T15:48:14.758Z,100121.19
2023-01-11T15:51:13.112Z,100189.91
2023-01-11T15:54:35.993Z,100131.59
2023-01-11T15:57:41.112Z,100193.41
2023-01-11T16:00:55.417Z,100195.19
2023-01-11T16:03:54.183Z,100189.00
2023-01-11T16:06:39.447Z,100192.53
2023-01-11T16:09:33.026Z,100192.53
2023-01-11T16:12:31.440Z,100196.06
2023-01-11T16:15:24.342Z,100186.50
2023-01-11T16:17:53.542Z,100182.16
2023-01-11T16:20:27.902Z,100202.16
2023-01-11T16:23:02.279Z,100199.53
2023-01-11T16:25:33.956Z,100203.00
2023-01-11T16:28:05.061Z,100216.19
2023-01-11T16:30:35.277Z,100153.53
2023-01-11T16:33:21.652Z,100217.06
2023-01-11T16:35:50.808Z,100097.03
2023-01-11T16:38:25.253Z,100218.72
2023-01-11T16:40:56.354Z,100219.63
2023-01-11T16:43:29.033Z,100201.41
2023-01-11T16:45:58.549Z,100232.81
2023-01-11T16:48:29.965Z,100198.91
2023-01-11T16:51:02.819Z,100215.47
2023-01-11T16:53:35.127Z,100155.47
2023-01-11T16:56:07.782Z,100239.81
2023-01-11T16:58:39.193Z,100243.28
2023-01-11T17:01:10.764Z,100242.41
2023-01-11T17:03:43.969Z,100252.97
2023-01-11T17:06:20.654Z,100259.09
2023-01-11T17:08:52.863Z,100084.16
2023-01-11T17:11:36.299Z,100245.06
2023-01-11T17:14:57.205Z,100260.78
2023-01-11T17:17:27.416Z,100264.31
2023-01-11T17:19:58.931Z,100267.78
2023-01-11T17:22:33.281Z,100223.34
2023-01-11T17:25:07.338Z,100252.94
2023-01-11T17:27:41.544Z,100232.03
2023-01-11T17:30:20.459Z,100275.59
2023-01-11T17:32:53.361Z,100269.38
2023-01-11T17:35:25.379Z,100215.38
2023-01-11T17:37:57.663Z,100273.75
2023-01-11T17:40:32.915Z,100205.84
2023-01-11T17:43:24.995Z,100238.06
2023-01-11T17:45:57.199Z,100239.81
2023-01-11T17:48:30.768Z,100271.94
2023-01-11T17:51:02.436Z,100296.38
2023-01-11T17:53:34.464Z,100295.44
2023-01-11T17:56:07.787Z,100298.91
2023-01-11T17:58:37.571Z,100272.75
2023-01-11T18:01:19.927Z,100256.22
2023-01-11T18:03:52.845Z,100300.63
2023-01-11T18:06:32.846Z,100286.69
2023-01-11T18:09:05.619Z,100311.03
2023-01-11T18:11:40.444Z,100309.28
2023-01-11T18:14:19.710Z,100285.78
2023-01-11T18:17:00.557Z,100265.75
2023-01-11T18:19:35.997Z,100312.78
2023-01-11T18:22:05.527Z,100269.38
2023-01-11T18:24:45.748Z,100318.13
2023-01-11T18:27:28.938Z,100316.44
2023-01-11T18:30:06.212Z,100283.34
2023-01-11T18:32:42.364Z,100326.78
2023-01-11T18:35:18.786Z,100326.78
2023-01-11T18:37:47.893Z,100319.97
2023-01-11T18:40:19.197Z,100347.00
2023-01-11T18:42:55.627Z,100341.75
2023-01-11T18:45:25.034Z,100234.63
2023-01-11T18:47:53.854Z,100286.84
2023-01-11T18:50:23.928Z,100296.34
2023-01-11T18:52:52.414Z,100312.94
2023-01-11T18:55:20.859Z,100233.78
2023-01-11T18:57:53.055Z,100343.44
2023-01-11T19:00:22.718Z,100346.06
2023-01-11T19:05:25.598Z,100361.06
2023-01-11T19:07:54.218Z,100278.38
2023-01-11T19:10:24.523Z,100364.53
2023-01-11T19:12:54.423Z,100365.44
2023-01-11T19:15:23.010Z,100365.50
2023-01-11T19:17:51.476Z,100370.75
2023-01-11T19:20:20.149Z,100381.31
2023-01-11T19:22:48.509Z,100387.44
2023-01-11T19:25:17.650Z,100391.81
2023-01-11T19:27:46.115Z,100397.16
2023-01-11T19:30:17.340Z,100356.16
2023-01-11T19:32:51.075Z,100396.25
2023-01-11T19:35:19.829Z,100367.53
2023-01-11T19:37:50.023Z,100360.56
2023-01-11T19:40:19.904Z,100405.09
2023-01-11T19:42:51.306Z,100405.94
2023-01-11T19:45:21.558Z,100400.72
2023-01-11T19:47:50.064Z,100413.84
2023-01-11T19:50:18.735Z,100416.50
2023-01-11T19:52:47.418Z,100390.38
2023-01-11T19:55:15.947Z,100416.53
2023-01-11T19:57:44.590Z,100426.28
2023-01-11T20:00:14.588Z,100426.31
2023-01-11T20:02:44.569Z,100407.13
2023-01-11T20:05:13.551Z,100419.50
2023-01-11T20:07:42.110Z,100446.59
2023-01-11T20:10:12.111Z,100440.47
2023-01-11T20:12:41.572Z,100451.16
2023-01-11T20:15:12.329Z,100447.75
2023-01-11T20:17:41.235Z,100456.66
2023-01-11T20:20:15.102Z,100468.09
2023-01-11T20:22:45.519Z,100469.00
2023-01-11T20:25:14.611Z,100465.66
2023-01-11T20:27:43.053Z,100479.72
2023-01-11T20:30:14.070Z,100478.03
2023-01-11T20:32:44.865Z,100467.56
2023-01-11T20:35:17.232Z,100485.84
2023-01-11T20:37:45.716Z,100458.72
2023-01-11T20:40:15.360Z,100488.38
2023-01-11T20:42:43.881Z,100489.22
2023-01-11T20:45:14.100Z,100496.22
2023-01-11T20:47:45.662Z,100499.75
2023-01-11T20:50:16.117Z,100500.69
2023-01-11T20:52:44.979Z,100480.72
2023-01-11T20:55:13.353Z,100487.84
2023-01-11T20:57:41.936Z,100499.31
2023-01-11T21:02:39.687Z,100495.94
2023-01-11T21:05:09.399Z,100401.78
2023-01-11T21:07:39.226Z,100508.38
2023-01-11T21:10:12.881Z,100506.69
2023-01-11T21:12:41.811Z,100456.94
2023-01-11T21:15:11.292Z,100505.00
2023-01-11T21:17:42.192Z,100513.81
2023-01-11T21:20:14.527Z,100502.50
2023-01-11T21:22:51.255Z,100406.59
2023-01-11T21:25:21.719Z,100513.94
2023-01-11T21:27:50.120Z,100518.38
2023-01-11T21:30:21.605Z,100520.09
2023-01-11T21:32:50.209Z,100502.69
2023-01-11T21:35:18.736Z,100518.41
2023-01-11T21:37:48.514Z,100518.47
2023-01-11T21:40:17.428Z,100514.13
2023-01-11T21:42:46.569Z,100504.50
2023-01-11T21:45:15.121Z,100522.06
2023-01-11T21:47:45.778Z,100518.53
2023-01-11T21:50:14.217Z,100522.06
2023-01-11T21:52:42.628Z,100479.31
2023-01-11T21:55:12.490Z,100530.03
2023-01-11T21:57:40.878Z,100534.44
2023-01-11T22:00:14.098Z,100540.59
2023-01-11T22:02:42.785Z,100545.00
2023-01-11T22:05:11.841Z,100544.16
2023-01-11T22:07:43.512Z,100541.53
2023-01-11T22:10:15.175Z,100546.78
2023-01-11T22:12:43.970Z,100546.78
2023-01-11T22:15:12.752Z,100547.66
2023-01-11T22:17:41.345Z,100554.69
2023-01-11T22:20:11.895Z,100550.34
2023-01-11T22:22:40.296Z,100548.59
2023-01-11T22:25:09.888Z,100523.25
2023-01-11T22:27:39.861Z,100450.78
2023-01-11T22:30:10.852Z,100543.44
2023-01-11T22:32:40.278Z,100543.44
2023-01-11T22:35:10.447Z,100558.34
2023-01-11T22:37:40.316Z,100507.66
2023-01-11T22:40:11.106Z,100562.75
2023-01-11T22:42:40.867Z,100542.69
2023-01-11T22:45:11.449Z,100573.28
2023-01-11T22:47:39.865Z,100557.59
2023-01-11T22:50:10.285Z,100563.69
2023-01-11T22:52:38.692Z,100577.69
2023-01-11T22:55:08.847Z,100582.94
2023-01-11T22:57:37.259Z,100585.56
2023-01-11T23:00:10.052Z,100581.19
2023-01-11T23:02:38.534Z,100583.81
2023-01-11T23:05:08.574Z,100524.34
2023-01-11T23:07:37.001Z,100589.06
2023-01-11T23:10:07.595Z,100595.22
2023-01-11T23:12:53.541Z,100604.81
2023-01-11T23:15:23.288Z,100600.44
2023-01-11T23:17:51.764Z,100592.56
2023-01-11T23:20:20.158Z,100593.44
2023-01-11T23:25:55.541Z,100589.06
2023-01-11T23:28:24.338Z,100574.16
2023-01-11T23:30:54.057Z,100584.66
2023-01-11T23:33:22.515Z,100560.19
2023-01-11T23:35:57.356Z,100575.94
2023-01-11T23:38:25.991Z,100577.69
2023-01-11T23:41:11.836Z,100568.06
2023-01-11T23:43:40.284Z,100584.69
2023-01-11T23:46:23.909Z,100588.19
2023-01-11T23:48:52.573Z,100596.03
2023-01-11T23:51:20.928Z,100557.56
2023-01-11T23:53:51.207Z,100592.53
2023-01-11T23:56:19.622Z,100587.28
2023-01-11T23:58:47.964Z,100584.66
